createdAt,value
2022-10-09T00:01:31.807Z,72.53
2022-10-09T00:03:59.578Z,72.67
2022-10-09T00:06:29.135Z,73.04
2022-10-09T00:08:56.418Z,73.61
2022-10-09T00:11:25.276Z,73.82
2022-10-09T00:13:53.272Z,72.65
2022-10-09T00:16:21.080Z,72.00
2022-10-09T00:18:48.457Z,72.19
2022-10-09T00:21:26.771Z,72.41
2022-10-09T00:23:55.192Z,72.92
2022-10-09T00:26:22.428Z,73.34
2022-10-09T00:28:49.492Z,73.97
2022-10-09T00:31:16.731Z,74.23
2022-10-09T00:33:43.852Z,75.67
2022-10-09T00:36:29.068Z,74.51
2022-10-09T00:38:56.075Z,74.05
2022-10-09T00:41:28.985Z,73.98
2022-10-09T00:44:04.346Z,73.77
2022-10-09T00:46:40.250Z,74.03
2022-10-09T00:49:22.683Z,74.50
2022-10-09T00:51:50.114Z,75.11
2022-10-09T00:54:18.548Z,75.00
2022-10-09T00:56:45.646Z,73.71
2022-10-09T00:59:12.962Z,73.05
2022-10-09T01:01:41.874Z,73.10
2022-10-09T01:04:09.036Z,73.29
2022-10-09T01:06:57.514Z,73.97
2022-10-09T01:09:35.907Z,75.47
2022-10-09T01:12:19.534Z,75.87
2022-10-09T01:15:18.509Z,75.28
2022-10-09T01:18:07.904Z,73.75
2022-10-09T01:20:42.432Z,73.34
2022-10-09T01:23:17.254Z,73.33
2022-10-09T01:25:56.800Z,74.68
2022-10-09T01:28:24.605Z,75.04
2022-10-09T01:30:51.883Z,75.74
2022-10-09T01:33:19.005Z,75.96
2022-10-09T01:35:46.236Z,74.76
2022-10-09T01:38:13.136Z,74.63
2022-10-09T01:40:40.109Z,74.63
2022-10-09T01:43:07.154Z,75.42
2022-10-09T01:45:42.364Z,75.56
2022-10-09T01:48:13.112Z,76.15
2022-10-09T01:50:43.169Z,75.45
2022-10-09T01:53:12.837Z,73.73
2022-10-09T01:55:49.959Z,73.28
2022-10-09T01:58:27.243Z,73.54
2022-10-09T02:01:19.328Z,74.28
2022-10-09T02:03:48.399Z,75.09
2022-10-09T02:06:16.324Z,75.36
2022-10-09T02:08:44.757Z,74.85
2022-10-09T02:11:12.566Z,73.61
2022-10-09T02:13:39.503Z,73.07
2022-10-09T02:16:20.937Z,73.53
2022-10-09T02:19:04.521Z,73.87
2022-10-09T02:21:48.658Z,74.76
2022-10-09T02:24:19.716Z,75.13
2022-10-09T02:26:46.678Z,75.15
2022-10-09T02:29:13.941Z,73.78
2022-10-09T02:31:42.028Z,73.15
2022-10-09T02:34:12.031Z,73.59
2022-10-09T02:36:39.351Z,74.52
2022-10-09T02:39:06.462Z,74.75
2022-10-09T02:41:33.656Z,75.51
2022-10-09T02:44:00.664Z,75.82
2022-10-09T02:46:27.807Z,74.20
2022-10-09T02:48:54.776Z,73.51
2022-10-09T02:51:21.990Z,73.81
2022-10-09T02:53:48.890Z,74.15
2022-10-09T02:56:15.866Z,74.61
2022-10-09T02:58:43.183Z,75.07
2022-10-09T03:01:10.237Z,74.31
2022-10-09T03:03:37.291Z,73.21
2022-10-09T03:06:04.636Z,72.93
2022-10-09T03:08:31.710Z,73.47
2022-10-09T03:10:58.728Z,73.62
2022-10-09T03:13:25.748Z,74.17
2022-10-09T03:15:52.754Z,74.45
2022-10-09T03:18:19.765Z,74.38
2022-10-09T03:20:46.761Z,72.27
2022-10-09T03:23:13.865Z,71.82
2022-10-09T03:25:40.790Z,71.89
2022-10-09T03:28:07.796Z,72.25
2022-10-09T03:30:34.901Z,72.57
2022-10-09T03:33:01.859Z,73.29
2022-10-09T03:35:28.790Z,74.07
2022-10-09T03:37:55.786Z,74.23
2022-10-09T03:40:22.688Z,73.39
2022-10-09T03:42:49.954Z,71.44
2022-10-09T03:45:17.287Z,70.84
2022-10-09T03:47:44.334Z,70.58
2022-10-09T03:50:11.403Z,70.96
2022-10-09T03:52:38.430Z,71.45
2022-10-09T03:55:06.191Z,72.45
2022-10-09T03:57:33.856Z,73.07
2022-10-09T04:00:00.991Z,73.74
2022-10-09T04:02:27.995Z,73.02
2022-10-09T04:04:54.922Z,71.43
2022-10-09T04:07:21.843Z,70.10
2022-10-09T04:09:48.801Z,70.35
2022-10-09T04:12:15.831Z,70.83
2022-10-09T04:14:42.786Z,71.46
2022-10-09T04:17:09.837Z,72.19
2022-10-09T04:19:36.997Z,73.37
2022-10-09T04:22:04.026Z,73.58
2022-10-09T04:24:31.066Z,73.19
2022-10-09T04:26:58.123Z,71.79
2022-10-09T04:29:25.454Z,70.41
2022-10-09T04:31:53.046Z,71.02
2022-10-09T04:34:20.100Z,71.13
2022-10-09T04:36:47.060Z,71.46
2022-10-09T04:39:14.065Z,72.32
2022-10-09T04:41:41.224Z,73.22
2022-10-09T04:44:08.218Z,73.08
2022-10-09T04:46:35.179Z,72.99
2022-10-09T04:49:02.055Z,71.64
2022-10-09T04:51:28.935Z,70.64
2022-10-09T04:54:00.432Z,71.00
2022-10-09T04:56:27.926Z,71.74
2022-10-09T04:58:54.852Z,72.25
2022-10-09T05:01:23.455Z,73.37
2022-10-09T05:03:50.817Z,73.71
2022-10-09T05:06:18.635Z,74.09
2022-10-09T05:08:45.754Z,73.98
2022-10-09T05:11:18.238Z,72.64
2022-10-09T05:13:47.502Z,71.49
2022-10-09T05:16:16.944Z,71.86
2022-10-09T05:18:44.863Z,72.18
2022-10-09T05:21:11.994Z,72.62
2022-10-09T05:23:38.944Z,73.47
2022-10-09T05:26:12.343Z,74.00
2022-10-09T05:28:39.420Z,74.23
2022-10-09T05:31:07.174Z,74.20
2022-10-09T05:33:34.499Z,72.62
2022-10-09T05:36:03.007Z,72.14
2022-10-09T05:38:30.438Z,72.13
2022-10-09T05:40:59.384Z,72.32
2022-10-09T05:43:27.706Z,72.70
2022-10-09T05:45:55.077Z,73.18
2022-10-09T05:48:22.246Z,74.16
2022-10-09T05:50:49.259Z,74.81
2022-10-09T05:53:16.199Z,74.62
2022-10-09T05:55:43.151Z,72.73
2022-10-09T05:58:10.092Z,72.39
2022-10-09T06:00:37.270Z,73.28
2022-10-09T06:03:04.405Z,73.95
2022-10-09T06:05:31.399Z,74.99
2022-10-09T06:07:58.488Z,76.30
2022-10-09T06:10:28.013Z,77.57
2022-10-09T06:12:58.575Z,77.40
2022-10-09T06:15:25.568Z,76.19
2022-10-09T06:17:52.484Z,76.11
2022-10-09T06:20:19.316Z,76.74
2022-10-09T06:22:46.381Z,78.14
2022-10-09T06:25:13.502Z,79.09
2022-10-09T06:27:40.402Z,80.25
2022-10-09T06:30:08.303Z,78.78
2022-10-09T06:32:35.233Z,76.80
2022-10-09T06:35:02.256Z,76.43
2022-10-09T06:37:29.223Z,77.25
2022-10-09T06:39:56.252Z,77.57
2022-10-09T06:42:23.605Z,78.26
2022-10-09T06:44:51.465Z,79.12
2022-10-09T06:47:18.614Z,78.01
2022-10-09T06:49:45.664Z,76.40
2022-10-09T06:52:12.712Z,75.87
2022-10-09T06:54:39.570Z,76.49
2022-10-09T06:57:06.507Z,77.72
2022-10-09T06:59:33.516Z,79.97
2022-10-09T07:02:00.619Z,80.90
2022-10-09T07:04:27.849Z,78.88
2022-10-09T07:06:54.915Z,78.30
2022-10-09T07:09:21.940Z,78.41
2022-10-09T07:11:49.593Z,79.02
2022-10-09T07:14:16.792Z,79.73
2022-10-09T07:16:45.752Z,80.95
2022-10-09T07:19:13.226Z,79.45
2022-10-09T07:21:41.748Z,78.23
2022-10-09T07:24:08.846Z,78.01
2022-10-09T07:26:37.316Z,79.03
2022-10-09T07:29:05.394Z,80.18
2022-10-09T07:31:32.440Z,81.15
2022-10-09T07:33:59.686Z,81.05
2022-10-09T07:36:26.942Z,79.78
2022-10-09T07:38:57.818Z,80.45
2022-10-09T07:41:26.195Z,80.97
2022-10-09T07:43:53.133Z,82.14
2022-10-09T07:46:22.141Z,82.82
2022-10-09T07:48:49.347Z,81.07
2022-10-09T07:51:21.872Z,80.09
2022-10-09T07:53:48.962Z,80.72
2022-10-09T07:56:23.797Z,81.27
2022-10-09T07:58:52.071Z,82.59
2022-10-09T08:01:20.503Z,82.34
2022-10-09T08:03:48.314Z,80.66
2022-10-09T08:06:16.007Z,80.33
2022-10-09T08:08:43.125Z,81.18
2022-10-09T08:11:14.778Z,82.19
2022-10-09T08:13:42.071Z,82.79
2022-10-09T08:16:09.294Z,82.13
2022-10-09T08:18:37.009Z,80.69
2022-10-09T08:21:14.952Z,80.73
2022-10-09T08:23:42.027Z,80.68
2022-10-09T08:26:17.241Z,81.32
2022-10-09T08:28:44.736Z,80.96
2022-10-09T08:31:13.162Z,80.12
2022-10-09T08:33:40.273Z,79.91
2022-10-09T08:36:08.691Z,80.17
2022-10-09T08:38:51.424Z,80.56
2022-10-09T08:41:27.797Z,80.77
2022-10-09T08:44:01.788Z,79.40
2022-10-09T08:46:32.848Z,78.75
2022-10-09T08:48:59.901Z,78.62
2022-10-09T08:51:28.226Z,79.40
2022-10-09T08:53:59.148Z,79.62
2022-10-09T08:56:26.182Z,80.05
2022-10-09T08:58:53.326Z,78.65
2022-10-09T09:01:31.604Z,78.31
2022-10-09T09:04:23.847Z,79.04
2022-10-09T09:07:18.745Z,79.36
2022-10-09T09:10:13.951Z,79.98
2022-10-09T09:12:55.954Z,78.24
2022-10-09T09:15:30.041Z,78.03
2022-10-09T09:17:56.911Z,78.36
2022-10-09T09:20:27.955Z,78.33
2022-10-09T09:22:55.100Z,77.93
2022-10-09T09:25:24.449Z,76.71
2022-10-09T09:27:52.879Z,75.87
2022-10-09T09:30:23.765Z,76.05
2022-10-09T09:33:18.970Z,76.17
2022-10-09T09:35:52.050Z,76.83
2022-10-09T09:38:19.000Z,77.28
2022-10-09T09:40:47.173Z,75.60
2022-10-09T09:43:22.585Z,73.93
2022-10-09T09:45:57.653Z,74.21
2022-10-09T09:48:46.054Z,73.81
2022-10-09T09:51:33.143Z,74.31
2022-10-09T09:54:22.115Z,74.59
2022-10-09T09:59:38.178Z,73.92
2022-10-09T10:02:17.615Z,71.60
2022-10-09T10:04:57.769Z,70.50
2022-10-09T10:07:43.014Z,69.78
2022-10-09T10:10:09.898Z,70.81
2022-10-09T10:12:44.220Z,71.20
2022-10-09T10:15:25.968Z,70.58
2022-10-09T10:17:59.158Z,71.88
2022-10-09T10:20:26.973Z,72.56
2022-10-09T10:22:55.814Z,71.70
2022-10-09T10:25:31.789Z,70.09
2022-10-09T10:28:02.766Z,69.60
2022-10-09T10:30:29.963Z,69.30
2022-10-09T10:33:02.945Z,69.92
2022-10-09T10:35:40.744Z,70.96
2022-10-09T10:38:13.233Z,71.39
2022-10-09T10:40:44.597Z,72.34
2022-10-09T10:44:07.897Z,72.82
2022-10-09T10:46:39.215Z,71.56
2022-10-09T10:49:07.876Z,71.65
2022-10-09T10:51:58.063Z,72.32
2022-10-09T10:54:34.327Z,73.65
2022-10-09T10:57:27.479Z,74.27
2022-10-09T11:00:05.629Z,74.39
2022-10-09T11:03:03.504Z,72.96
2022-10-09T11:05:46.940Z,71.54
2022-10-09T11:08:35.677Z,72.55
2022-10-09T11:11:33.715Z,72.61
2022-10-09T11:14:25.884Z,72.95
2022-10-09T11:16:55.687Z,73.68
2022-10-09T11:19:25.475Z,73.47
2022-10-09T11:22:14.555Z,72.31
2022-10-09T11:25:10.046Z,73.35
2022-10-09T11:28:18.936Z,74.41
2022-10-09T11:30:59.982Z,75.50
2022-10-09T11:33:51.173Z,75.73
2022-10-09T11:36:39.837Z,74.33
2022-10-09T11:39:13.141Z,73.42
2022-10-09T11:41:40.082Z,73.48
2022-10-09T11:44:29.173Z,74.45
2022-10-09T11:47:14.512Z,74.79
2022-10-09T11:49:47.703Z,74.39
2022-10-09T11:52:23.987Z,72.87
2022-10-09T11:54:51.020Z,71.56
2022-10-09T11:57:27.472Z,70.88
2022-10-09T12:00:04.915Z,71.07
2022-10-09T12:02:32.153Z,71.15
2022-10-09T12:04:59.501Z,71.45
2022-10-09T12:07:30.965Z,71.52
2022-10-09T12:10:08.590Z,71.33
2022-10-09T12:12:37.935Z,70.10
2022-10-09T12:15:37.433Z,68.84
2022-10-09T12:18:17.489Z,68.55
2022-10-09T12:20:45.918Z,67.73
2022-10-09T12:23:28.463Z,66.45
2022-10-09T12:25:55.938Z,67.15
2022-10-09T12:28:29.367Z,65.45
2022-10-09T12:30:58.361Z,64.57
2022-10-09T12:33:48.509Z,59.12
2022-10-09T12:36:22.089Z,55.33
2022-10-09T12:38:49.163Z,54.69
2022-10-09T12:41:27.977Z,56.28
2022-10-09T12:43:56.054Z,56.98
2022-10-09T12:46:30.602Z,57.65
2022-10-09T12:48:58.190Z,59.44
2022-10-09T12:51:27.146Z,61.05
2022-10-09T12:53:54.922Z,61.60
2022-10-09T12:56:24.830Z,61.55
2022-10-09T12:58:51.755Z,60.32
2022-10-09T13:01:19.027Z,59.24
2022-10-09T13:03:54.861Z,58.78
2022-10-09T13:06:24.470Z,59.32
2022-10-09T13:08:52.868Z,59.02
2022-10-09T13:11:22.407Z,58.42
2022-10-09T13:13:50.912Z,58.39
2022-10-09T13:16:18.042Z,58.43
2022-10-09T13:19:04.135Z,58.33
2022-10-09T13:21:35.242Z,57.96
2022-10-09T13:24:13.422Z,58.25
2022-10-09T13:26:41.485Z,59.00
2022-10-09T13:29:08.784Z,56.51
2022-10-09T13:31:37.234Z,55.08
2022-10-09T13:34:12.312Z,55.79
2022-10-09T13:36:39.322Z,56.47
2022-10-09T13:39:06.472Z,56.23
2022-10-09T13:41:34.031Z,57.03
2022-10-09T13:44:01.071Z,56.98
2022-10-09T13:46:28.067Z,57.36
2022-10-09T13:48:55.099Z,57.38
2022-10-09T13:51:22.112Z,57.22
2022-10-09T13:53:50.035Z,56.70
2022-10-09T13:56:17.340Z,57.14
2022-10-09T13:58:44.330Z,56.91
2022-10-09T14:01:11.380Z,57.37
2022-10-09T14:03:38.781Z,56.94
2022-10-09T14:06:06.716Z,56.44
2022-10-09T14:08:33.611Z,55.91
2022-10-09T14:11:01.054Z,56.11
2022-10-09T14:13:28.923Z,56.51
2022-10-09T14:15:56.056Z,57.39
2022-10-09T14:18:23.114Z,58.32
2022-10-09T14:20:50.163Z,58.59
2022-10-09T14:23:17.073Z,58.88
2022-10-09T14:25:44.155Z,59.60
2022-10-09T14:28:11.241Z,60.07
2022-10-09T14:30:42.271Z,60.52
2022-10-09T14:33:09.530Z,61.11
2022-10-09T14:35:36.588Z,61.40
2022-10-09T14:38:03.906Z,62.09
2022-10-09T14:40:31.454Z,62.62
2022-10-09T14:42:58.606Z,63.14
2022-10-09T14:45:25.755Z,63.22
2022-10-09T14:47:52.660Z,63.87
2022-10-09T14:50:19.610Z,64.85
2022-10-09T14:52:46.677Z,65.12
2022-10-09T14:55:15.400Z,65.32
2022-10-09T14:57:43.756Z,65.53
2022-10-09T15:00:11.650Z,66.17
2022-10-09T15:02:38.911Z,65.70
2022-10-09T15:05:06.119Z,64.74
2022-10-09T15:07:33.994Z,64.76
2022-10-09T15:10:00.944Z,65.05
2022-10-09T15:12:27.946Z,65.77
2022-10-09T15:14:54.932Z,66.59
2022-10-09T15:17:22.061Z,67.27
2022-10-09T15:19:49.131Z,67.97
2022-10-09T15:22:16.074Z,68.68
2022-10-09T15:24:43.056Z,68.98
2022-10-09T15:27:09.974Z,68.14
2022-10-09T15:29:37.059Z,66.59
2022-10-09T15:32:04.061Z,66.56
2022-10-09T15:34:31.206Z,67.01
2022-10-09T15:36:58.280Z,68.12
2022-10-09T15:39:25.341Z,68.78
2022-10-09T15:41:52.350Z,69.09
2022-10-09T15:44:20.572Z,70.02
2022-10-09T15:46:48.206Z,70.44
2022-10-09T15:49:15.235Z,70.97
2022-10-09T15:51:42.216Z,69.95
2022-10-09T15:54:10.444Z,68.01
2022-10-09T15:56:39.971Z,67.73
2022-10-09T15:59:07.620Z,68.75
2022-10-09T16:01:34.668Z,69.57
2022-10-09T16:04:01.922Z,71.19
2022-10-09T16:06:29.217Z,71.43
2022-10-09T16:08:57.608Z,71.85
2022-10-09T16:11:26.441Z,71.83
2022-10-09T16:13:54.676Z,70.85
2022-10-09T16:16:23.511Z,69.91
2022-10-09T16:18:51.222Z,70.43
2022-10-09T16:21:20.234Z,71.00
2022-10-09T16:23:47.720Z,71.42
2022-10-09T16:26:17.990Z,72.24
2022-10-09T16:28:45.994Z,72.29
2022-10-09T16:31:26.691Z,72.52
2022-10-09T16:33:53.826Z,69.76
2022-10-09T16:36:21.004Z,68.95
2022-10-09T16:38:48.229Z,68.55
2022-10-09T16:41:18.102Z,69.06
2022-10-09T16:43:46.135Z,69.21
2022-10-09T16:46:20.440Z,70.29
2022-10-09T16:48:48.398Z,70.49
2022-10-09T16:51:18.068Z,70.95
2022-10-09T16:53:45.363Z,71.14
2022-10-09T16:56:16.708Z,69.95
2022-10-09T16:58:43.985Z,68.73
2022-10-09T17:01:11.208Z,68.62
2022-10-09T17:03:42.218Z,69.27
2022-10-09T17:06:16.394Z,70.02
2022-10-09T17:08:43.420Z,71.07
2022-10-09T17:11:11.766Z,71.85
2022-10-09T17:13:38.847Z,72.22
2022-10-09T17:16:07.529Z,71.70
2022-10-09T17:18:35.596Z,69.77
2022-10-09T17:21:07.050Z,69.74
2022-10-09T17:23:34.195Z,70.43
2022-10-09T17:26:08.034Z,71.14
2022-10-09T17:28:35.401Z,72.13
2022-10-09T17:31:07.215Z,73.11
2022-10-09T17:33:34.740Z,74.16
2022-10-09T17:36:02.334Z,73.18
2022-10-09T17:38:29.390Z,72.04
2022-10-09T17:40:56.555Z,72.55
2022-10-09T17:45:11.618Z,73.90
2022-10-09T17:47:39.175Z,75.47
2022-10-09T17:50:06.995Z,75.90
2022-10-09T17:52:33.992Z,77.46
2022-10-09T17:55:01.133Z,76.73
2022-10-09T17:57:28.084Z,75.27
2022-10-09T17:59:55.055Z,75.20
2022-10-09T18:02:22.090Z,75.78
2022-10-09T18:04:49.226Z,76.98
2022-10-09T18:07:19.694Z,77.91
2022-10-09T18:09:46.552Z,78.51
2022-10-09T18:12:13.446Z,77.19
2022-10-09T18:14:40.506Z,75.94
2022-10-09T18:17:07.730Z,76.37
2022-10-09T18:19:34.883Z,76.90
2022-10-09T18:22:02.440Z,78.11
2022-10-09T18:24:29.496Z,79.01
2022-10-09T18:26:56.490Z,79.38
2022-10-09T18:29:23.486Z,78.79
2022-10-09T18:31:55.647Z,77.66
2022-10-09T18:34:23.343Z,77.30
2022-10-09T18:36:52.100Z,78.02
2022-10-09T18:39:19.425Z,78.84
2022-10-09T18:41:46.507Z,80.26
2022-10-09T18:44:17.863Z,81.12
2022-10-09T18:46:54.628Z,79.74
2022-10-09T18:49:24.698Z,78.52
2022-10-09T18:51:53.365Z,78.68
2022-10-09T18:54:21.980Z,79.61
2022-10-09T18:56:48.958Z,80.32
2022-10-09T18:59:17.538Z,81.50
2022-10-09T19:01:44.535Z,80.14
2022-10-09T19:04:11.945Z,78.10
2022-10-09T19:06:39.191Z,78.57
2022-10-09T19:09:06.245Z,79.19
2022-10-09T19:11:34.093Z,79.85
2022-10-09T19:14:01.276Z,81.20
2022-10-09T19:16:28.905Z,81.63
2022-10-09T19:18:56.726Z,80.75
2022-10-09T19:21:23.830Z,78.71
2022-10-09T19:23:51.589Z,78.20
2022-10-09T19:26:18.765Z,78.94
2022-10-09T19:28:46.054Z,79.68
2022-10-09T19:31:13.904Z,80.43
2022-10-09T19:33:41.282Z,80.81
2022-10-09T19:36:10.641Z,80.19
2022-10-09T19:38:37.515Z,78.44
2022-10-09T19:41:09.420Z,78.56
2022-10-09T19:43:36.676Z,79.37
2022-10-09T19:46:05.533Z,80.26
2022-10-09T19:48:32.921Z,81.87
2022-10-09T19:50:59.969Z,82.53
2022-10-09T19:53:27.128Z,80.93
2022-10-09T19:55:54.162Z,79.43
2022-10-09T19:58:21.155Z,78.82
2022-10-09T20:00:49.185Z,79.75
2022-10-09T20:03:16.395Z,80.64
2022-10-09T20:05:43.477Z,81.34
2022-10-09T20:08:10.534Z,81.88
2022-10-09T20:10:38.103Z,80.21
2022-10-09T20:13:05.545Z,78.86
2022-10-09T20:15:32.546Z,78.15
2022-10-09T20:17:59.536Z,78.57
2022-10-09T20:20:27.401Z,79.61
2022-10-09T20:22:54.561Z,81.04
2022-10-09T20:25:21.797Z,81.13
2022-10-09T20:27:48.855Z,79.47
2022-10-09T20:30:15.792Z,78.63
2022-10-09T20:32:42.841Z,78.84
2022-10-09T20:35:10.327Z,80.13
2022-10-09T20:37:37.452Z,81.24
2022-10-09T20:40:04.926Z,81.97
2022-10-09T20:42:32.262Z,81.31
2022-10-09T20:44:59.312Z,79.90
2022-10-09T20:47:26.254Z,79.53
2022-10-09T20:49:53.170Z,80.12
2022-10-09T20:52:20.180Z,81.60
2022-10-09T20:54:47.082Z,82.65
2022-10-09T20:57:14.085Z,82.31
2022-10-09T20:59:41.280Z,80.15
2022-10-09T21:02:08.540Z,80.38
2022-10-09T21:04:35.617Z,80.73
2022-10-09T21:07:02.551Z,81.59
2022-10-09T21:09:33.065Z,82.09
2022-10-09T21:12:00.612Z,81.14
2022-10-09T21:14:27.611Z,79.60
2022-10-09T21:16:54.513Z,79.36
2022-10-09T21:19:21.463Z,79.66
2022-10-09T21:21:51.001Z,80.66
2022-10-09T21:24:18.309Z,81.94
2022-10-09T21:26:47.608Z,83.04
2022-10-09T21:29:14.626Z,81.21
2022-10-09T21:31:42.011Z,80.58
2022-10-09T21:34:09.118Z,81.10
2022-10-09T21:37:08.863Z,81.73
2022-10-09T21:39:33.711Z,82.92
2022-10-09T21:42:00.826Z,83.74
2022-10-09T21:44:27.969Z,82.19
2022-10-09T21:46:55.042Z,80.95
2022-10-09T21:49:23.517Z,81.46
2022-10-09T21:51:50.614Z,82.12
2022-10-09T21:54:17.595Z,82.75
2022-10-09T21:56:44.619Z,84.23
2022-10-09T21:59:11.702Z,83.16
2022-10-09T22:01:38.700Z,81.50
2022-10-09T22:04:05.810Z,81.93
2022-10-09T22:06:32.824Z,81.98
2022-10-09T22:09:00.192Z,82.92
2022-10-09T22:11:27.233Z,84.50
2022-10-09T22:13:55.805Z,83.55
2022-10-09T22:16:22.855Z,81.69
2022-10-09T22:18:49.711Z,81.76
2022-10-09T22:21:16.959Z,82.17
2022-10-09T22:23:44.238Z,83.55
2022-10-09T22:26:13.654Z,84.83
2022-10-09T22:28:40.834Z,83.57
2022-10-09T22:31:14.045Z,81.81
2022-10-09T22:33:41.197Z,82.03
2022-10-09T22:36:10.782Z,82.53
2022-10-09T22:38:37.953Z,84.49
2022-10-09T22:41:05.717Z,85.10
2022-10-09T22:43:32.677Z,84.00
2022-10-09T22:45:59.718Z,82.61
2022-10-09T22:48:26.686Z,82.86
2022-10-09T22:50:53.705Z,83.73
2022-10-09T22:53:20.799Z,84.19
2022-10-09T22:55:47.830Z,85.17
2022-10-09T22:58:14.858Z,84.80
2022-10-09T23:00:41.837Z,83.23
2022-10-09T23:03:08.840Z,83.13
2022-10-09T23:05:35.846Z,84.33
2022-10-09T23:08:02.750Z,84.34
2022-10-09T23:10:29.683Z,85.55
2022-10-09T23:12:56.653Z,84.95
2022-10-09T23:15:23.661Z,83.33
2022-10-09T23:17:50.606Z,82.93
2022-10-09T23:20:17.561Z,83.48
2022-10-09T23:22:44.542Z,85.43
2022-10-09T23:25:11.544Z,85.86
2022-10-09T23:27:38.593Z,85.31
2022-10-09T23:30:06.380Z,83.75
2022-10-09T23:32:33.398Z,83.48
2022-10-09T23:35:00.489Z,84.34
2022-10-09T23:37:27.416Z,85.23
2022-10-09T23:39:54.260Z,86.54
2022-10-09T23:42:21.401Z,86.03
2022-10-09T23:44:48.331Z,84.74
2022-10-09T23:47:15.259Z,84.32
2022-10-09T23:49:42.218Z,85.13
2022-10-09T23:52:09.136Z,86.13
2022-10-09T23:54:36.066Z,87.15
2022-10-09T23:57:03.158Z,86.61
2022-10-09T23:59:30.146Z,84.61
